createdAt,value
2023-05-04T00:00:30.876Z,0.00
2023-05-04T00:01:30.904Z,0.00
2023-05-04T00:02:30.983Z,0.00
2023-05-04T00:03:31.058Z,0.00
2023-05-04T00:05:31.006Z,0.00
2023-05-04T00:06:31.281Z,0.00
2023-05-04T00:07:31.062Z,0.00
2023-05-04T00:08:31.086Z,0.00
2023-05-04T00:09:31.159Z,0.00
2023-05-04T00:10:31.146Z,0.00
2023-05-04T00:11:31.176Z,0.00
2023-05-04T00:12:31.260Z,0.00
2023-05-04T00:13:31.497Z,0.00
2023-05-04T00:15:31.283Z,0.00
2023-05-04T00:16:31.357Z,0.00
2023-05-04T00:17:31.439Z,0.00
2023-05-04T00:18:31.369Z,0.00
2023-05-04T00:19:31.392Z,0.00
2023-05-04T00:20:31.733Z,0.00
2023-05-04T00:21:31.484Z,0.00
2023-05-04T00:22:31.478Z,0.00
2023-05-04T00:24:31.532Z,0.00
2023-05-04T00:25:31.612Z,0.00
2023-05-04T00:26:31.593Z,0.00
2023-05-04T00:27:31.937Z,0.00
2023-05-04T00:28:31.649Z,0.00
2023-05-04T00:29:31.688Z,0.00
2023-05-04T00:30:31.705Z,0.00
2023-05-04T00:31:31.761Z,0.00
2023-05-04T00:32:31.788Z,0.00
2023-05-04T00:33:32.090Z,0.00
2023-05-04T00:34:31.815Z,0.00
2023-05-04T00:35:31.877Z,0.00
2023-05-04T00:36:31.869Z,0.00
2023-05-04T00:37:31.906Z,0.00
2023-05-04T00:38:31.929Z,0.00
2023-05-04T00:39:32.258Z,0.00
2023-05-04T00:40:31.987Z,0.00
2023-05-04T00:41:32.163Z,0.00
2023-05-04T00:42:32.062Z,0.00
2023-05-04T00:43:32.081Z,0.00
2023-05-04T00:44:32.121Z,0.00
2023-05-04T00:45:32.443Z,0.00
2023-05-04T00:46:32.225Z,0.00
2023-05-04T00:47:32.204Z,0.00
2023-05-04T00:48:32.225Z,0.00
2023-05-04T00:49:32.250Z,0.00
2023-05-04T00:50:32.268Z,0.00
2023-05-04T00:51:32.293Z,0.00
2023-05-04T00:52:32.627Z,0.00
2023-05-04T00:53:32.351Z,0.00
2023-05-04T00:54:32.381Z,0.00
2023-05-04T00:55:32.418Z,0.00
2023-05-04T00:56:32.437Z,0.00
2023-05-04T00:57:32.508Z,0.00
2023-05-04T00:58:32.493Z,0.00
2023-05-04T00:59:32.775Z,0.00
2023-05-04T01:00:32.551Z,0.00
2023-05-04T01:01:32.633Z,0.00
2023-05-04T01:03:32.673Z,0.00
2023-05-04T01:04:32.664Z,0.00
2023-05-04T01:05:32.694Z,0.00
2023-05-04T01:06:33.036Z,0.00
2023-05-04T01:07:32.744Z,0.00
2023-05-04T01:08:32.779Z,0.00
2023-05-04T01:09:32.801Z,0.00
2023-05-04T01:11:32.856Z,0.00
2023-05-04T01:12:32.912Z,0.00
2023-05-04T01:13:33.233Z,0.00
2023-05-04T01:14:32.940Z,0.00
2023-05-04T01:15:32.968Z,0.00
2023-05-04T01:16:33.043Z,0.00
2023-05-04T01:17:33.105Z,0.00
2023-05-04T01:18:33.056Z,0.00
2023-05-04T01:19:33.087Z,0.00
2023-05-04T01:20:33.408Z,0.00
2023-05-04T01:21:33.139Z,0.00
2023-05-04T01:23:33.195Z,0.00
2023-05-04T01:24:33.227Z,0.00
2023-05-04T01:25:33.251Z,0.00
2023-05-04T01:26:33.276Z,0.00
2023-05-04T01:27:33.611Z,0.00
2023-05-04T01:28:33.336Z,0.00
2023-05-04T01:29:33.385Z,0.00
2023-05-04T01:30:33.398Z,0.00
2023-05-04T01:31:33.448Z,0.00
2023-05-04T01:33:33.482Z,0.00
2023-05-04T01:34:33.850Z,0.00
2023-05-04T01:35:33.534Z,0.00
2023-05-04T01:36:33.589Z,0.00
2023-05-04T01:37:33.593Z,0.00
2023-05-04T01:38:33.616Z,0.00
2023-05-04T01:40:33.680Z,0.00
2023-05-04T01:41:33.941Z,0.00
2023-05-04T01:43:33.755Z,0.00
2023-05-04T01:44:33.775Z,0.00
2023-05-04T01:45:33.830Z,0.00
2023-05-04T01:46:33.850Z,0.00
2023-05-04T01:47:33.882Z,0.00
2023-05-04T01:48:34.183Z,0.00
2023-05-04T01:49:33.912Z,0.00
2023-05-04T01:50:33.944Z,0.00
2023-05-04T01:51:33.972Z,0.00
2023-05-04T01:52:33.997Z,0.00
2023-05-04T01:53:34.043Z,0.00
2023-05-04T01:54:34.068Z,0.00
2023-05-04T01:55:34.394Z,0.00
2023-05-04T01:56:34.113Z,0.00
2023-05-04T01:57:34.150Z,0.00
2023-05-04T01:58:34.167Z,0.00
2023-05-04T01:59:34.197Z,0.00
2023-05-04T02:00:34.219Z,0.00
2023-05-04T02:01:34.343Z,0.00
2023-05-04T02:02:34.609Z,0.00
2023-05-04T02:03:34.380Z,0.00
2023-05-04T02:04:34.432Z,0.00
2023-05-04T02:05:34.352Z,0.00
2023-05-04T02:06:34.383Z,0.00
2023-05-04T02:07:34.412Z,0.00
2023-05-04T02:08:34.448Z,0.00
2023-05-04T02:09:34.766Z,0.00
2023-05-04T02:10:34.504Z,0.00
2023-05-04T02:11:34.526Z,0.00
2023-05-04T02:12:34.593Z,0.00
2023-05-04T02:13:34.584Z,0.00
2023-05-04T02:15:34.635Z,0.00
2023-05-04T02:16:35.029Z,0.00
2023-05-04T02:17:34.744Z,0.00
2023-05-04T02:18:34.731Z,0.00
2023-05-04T02:19:34.752Z,0.00
2023-05-04T02:20:34.791Z,0.00
2023-05-04T02:21:34.811Z,0.00
2023-05-04T02:22:34.829Z,0.00
2023-05-04T02:23:35.169Z,0.00
2023-05-04T02:24:34.886Z,0.00
2023-05-04T02:25:34.940Z,0.00
2023-05-04T02:26:34.947Z,0.00
2023-05-04T02:27:34.975Z,0.00
2023-05-04T02:28:35.004Z,0.00
2023-05-04T02:29:35.331Z,0.00
2023-05-04T02:30:35.056Z,0.00
2023-05-04T02:31:35.112Z,0.00
2023-05-04T02:32:35.162Z,0.00
2023-05-04T02:33:35.158Z,0.00
2023-05-04T02:34:35.167Z,0.00
2023-05-04T02:35:35.448Z,0.00
2023-05-04T02:36:35.239Z,0.00
2023-05-04T02:37:35.259Z,0.00
2023-05-04T02:38:35.280Z,0.00
2023-05-04T02:39:35.313Z,0.00
2023-05-04T02:40:35.335Z,0.00
2023-05-04T02:41:35.667Z,0.00
2023-05-04T02:42:35.388Z,0.00
2023-05-04T02:43:35.417Z,0.00
2023-05-04T02:44:35.441Z,0.00
2023-05-04T02:45:35.493Z,0.00
2023-05-04T02:46:35.498Z,0.00
2023-05-04T02:48:35.855Z,0.00
2023-05-04T02:49:35.605Z,0.00
2023-05-04T02:50:35.617Z,0.00
2023-05-04T02:52:35.674Z,0.00
2023-05-04T02:53:35.704Z,0.00
2023-05-04T02:54:35.732Z,0.00
2023-05-04T02:55:36.049Z,0.00
2023-05-04T02:56:35.797Z,0.00
2023-05-04T02:57:35.815Z,0.00
2023-05-04T02:58:35.840Z,0.00
2023-05-04T02:59:35.858Z,0.00
2023-05-04T03:00:35.889Z,0.00
2023-05-04T03:01:35.941Z,0.00
2023-05-04T03:02:36.276Z,0.00
2023-05-04T03:03:35.975Z,0.00
2023-05-04T03:04:36.146Z,0.00
2023-05-04T03:05:36.121Z,0.00
2023-05-04T03:06:36.063Z,0.00
2023-05-04T03:07:36.088Z,0.00
2023-05-04T03:09:36.162Z,0.00
2023-05-04T03:10:36.473Z,0.00
2023-05-04T03:11:36.199Z,0.00
2023-05-04T03:12:36.262Z,0.00
2023-05-04T03:13:36.252Z,0.00
2023-05-04T03:15:36.309Z,0.00
2023-05-04T03:18:36.694Z,0.00
2023-05-04T03:19:36.420Z,0.00
2023-05-04T03:20:36.446Z,0.00
2023-05-04T03:21:36.498Z,0.00
2023-05-04T03:22:36.504Z,0.00
2023-05-04T03:24:36.552Z,0.00
2023-05-04T03:25:36.897Z,0.00
2023-05-04T03:26:36.605Z,0.00
2023-05-04T03:27:36.717Z,0.00
2023-05-04T03:28:36.664Z,0.00
2023-05-04T03:29:36.715Z,0.00
2023-05-04T03:30:36.717Z,0.00
2023-05-04T03:31:36.801Z,0.00
2023-05-04T03:32:37.149Z,0.00
2023-05-04T03:33:36.819Z,0.00
2023-05-04T03:34:36.831Z,0.00
2023-05-04T03:35:37.014Z,4.00
2023-05-04T03:36:36.890Z,4.00
2023-05-04T03:37:36.956Z,4.00
2023-05-04T03:38:36.942Z,4.00
2023-05-04T03:39:37.277Z,4.00
2023-05-04T03:40:36.996Z,4.00
2023-05-04T03:41:37.020Z,4.00
2023-05-04T03:42:37.059Z,4.00
2023-05-04T03:43:37.092Z,8.00
2023-05-04T03:44:37.132Z,8.00
2023-05-04T03:45:37.138Z,8.00
2023-05-04T03:46:37.503Z,8.00
2023-05-04T03:47:37.221Z,12.00
2023-05-04T03:48:37.218Z,12.00
2023-05-04T03:50:37.287Z,16.00
2023-05-04T03:51:37.297Z,20.00
2023-05-04T03:52:37.326Z,24.00
2023-05-04T03:53:37.681Z,28.00
2023-05-04T03:54:37.384Z,32.00
2023-05-04T03:55:37.407Z,32.00
2023-05-04T03:56:37.442Z,40.00
2023-05-04T03:57:37.488Z,40.00
2023-05-04T03:58:37.494Z,44.00
2023-05-04T03:59:37.527Z,48.00
2023-05-04T04:00:37.859Z,48.00
2023-05-04T04:02:37.690Z,56.00
2023-05-04T04:03:37.729Z,60.00
2023-05-04T04:04:37.984Z,68.00
2023-05-04T04:05:37.682Z,72.00
2023-05-04T04:07:37.741Z,84.00
2023-05-04T04:08:38.070Z,92.00
2023-05-04T04:09:37.920Z,100.00
2023-05-04T04:10:37.822Z,104.00
2023-05-04T04:11:37.851Z,112.00
2023-05-04T04:12:37.919Z,120.00
2023-05-04T04:13:37.904Z,124.00
2023-05-04T04:14:37.932Z,136.00
2023-05-04T04:15:38.214Z,140.00
2023-05-04T04:16:38.189Z,152.00
2023-05-04T04:17:38.040Z,156.00
2023-05-04T04:19:38.072Z,172.00
2023-05-04T04:20:38.303Z,184.00
2023-05-04T04:21:38.120Z,188.00
2023-05-04T04:23:38.485Z,208.00
2023-05-04T04:24:38.203Z,216.00
2023-05-04T04:25:38.256Z,224.00
2023-05-04T04:26:38.264Z,236.00
2023-05-04T04:27:38.491Z,252.00
2023-05-04T04:28:38.310Z,268.00
2023-05-04T04:29:38.346Z,284.00
2023-05-04T04:30:38.628Z,296.00
2023-05-04T04:31:38.436Z,316.00
2023-05-04T04:33:38.470Z,352.00
2023-05-04T04:34:38.483Z,372.00
2023-05-04T04:35:38.588Z,392.00
2023-05-04T04:36:38.538Z,408.00
2023-05-04T04:37:38.869Z,428.00
2023-05-04T04:38:38.591Z,444.00
2023-05-04T04:39:38.768Z,464.00
2023-05-04T04:40:38.654Z,480.00
2023-05-04T04:41:38.792Z,496.00
2023-05-04T04:42:38.707Z,516.00
2023-05-04T04:43:38.753Z,532.00
2023-05-04T04:44:39.066Z,548.00
2023-05-04T04:45:38.784Z,564.00
2023-05-04T04:46:38.845Z,584.00
2023-05-04T04:47:38.862Z,604.00
2023-05-04T04:48:38.980Z,624.00
2023-05-04T04:49:38.897Z,652.00
2023-05-04T04:50:38.923Z,672.00
2023-05-04T04:51:39.200Z,688.00
2023-05-04T04:52:38.977Z,708.00
2023-05-04T04:53:39.014Z,728.00
2023-05-04T04:54:39.049Z,748.00
2023-05-04T04:55:39.065Z,768.00
2023-05-04T04:56:39.093Z,792.00
2023-05-04T04:57:39.143Z,820.00
2023-05-04T04:58:39.452Z,852.00
2023-05-04T04:59:39.172Z,888.00
2023-05-04T05:00:39.234Z,976.00
2023-05-04T05:01:39.226Z,1016.00
2023-05-04T05:02:39.279Z,1056.00
2023-05-04T05:03:39.286Z,1096.00
2023-05-04T05:04:39.344Z,1144.00
2023-05-04T05:05:39.664Z,1192.00
2023-05-04T05:06:39.372Z,1240.00
2023-05-04T05:07:39.391Z,1292.00
2023-05-04T05:08:39.422Z,1332.00
2023-05-04T05:09:39.446Z,1384.00
2023-05-04T05:10:40.441Z,1428.00
2023-05-04T05:11:39.498Z,1476.00
2023-05-04T05:13:39.631Z,1556.00
2023-05-04T05:14:39.582Z,1596.00
2023-05-04T05:15:39.608Z,1620.00
2023-05-04T05:16:39.712Z,1644.00
2023-05-04T05:17:39.719Z,1664.00
2023-05-04T05:18:39.694Z,1676.00
2023-05-04T05:19:42.086Z,1668.00
2023-05-04T05:20:39.756Z,1664.00
2023-05-04T05:21:39.783Z,1668.00
2023-05-04T05:22:39.807Z,1672.00
2023-05-04T05:23:39.831Z,1684.00
2023-05-04T05:24:39.866Z,1704.00
2023-05-04T05:25:39.886Z,1752.00
2023-05-04T05:27:40.245Z,1800.00
2023-05-04T05:28:39.972Z,1816.00
2023-05-04T05:29:40.055Z,1840.00
2023-05-04T05:30:40.074Z,1860.00
2023-05-04T05:31:40.161Z,1884.00
2023-05-04T05:32:40.134Z,1896.00
2023-05-04T05:33:40.107Z,1884.00
2023-05-04T05:34:40.436Z,1896.00
2023-05-04T05:35:40.165Z,1892.00
2023-05-04T05:36:40.191Z,1888.00
2023-05-04T05:37:40.226Z,1888.00
2023-05-04T05:38:40.245Z,1908.00
2023-05-04T05:39:40.279Z,1920.00
2023-05-04T05:40:40.298Z,1924.00
2023-05-04T05:41:40.330Z,1932.00
2023-05-04T05:42:40.364Z,1928.00
2023-05-04T05:43:40.389Z,1928.00
2023-05-04T05:44:40.425Z,1924.00
2023-05-04T05:45:40.469Z,1920.00
2023-05-04T05:46:40.540Z,1904.00
2023-05-04T05:47:40.842Z,1888.00
2023-05-04T05:48:40.526Z,1864.00
2023-05-04T05:49:40.551Z,1844.00
2023-05-04T05:50:40.591Z,1848.00
2023-05-04T05:51:40.709Z,1860.00
2023-05-04T05:52:40.635Z,1876.00
2023-05-04T05:53:40.656Z,1892.00
2023-05-04T05:54:40.988Z,1916.00
2023-05-04T05:55:40.714Z,1932.00
2023-05-04T05:56:40.755Z,1936.00
2023-05-04T05:57:40.795Z,1956.00
2023-05-04T05:58:40.825Z,1968.00
2023-05-04T05:59:40.821Z,1984.00
2023-05-04T06:00:40.967Z,2004.00
2023-05-04T06:01:41.261Z,2016.00
2023-05-04T06:02:40.990Z,2036.00
2023-05-04T06:04:41.018Z,2056.00
2023-05-04T06:05:41.004Z,2072.00
2023-05-04T06:06:41.902Z,2100.00
2023-05-04T06:07:41.102Z,2124.00
2023-05-04T06:08:41.372Z,2144.00
2023-05-04T06:09:41.104Z,2140.00
2023-05-04T06:10:41.132Z,2160.00
2023-05-04T06:11:41.159Z,2180.00
2023-05-04T06:12:41.255Z,2200.00
2023-05-04T06:13:41.215Z,2220.00
2023-05-04T06:14:41.241Z,2248.00
2023-05-04T06:15:41.571Z,2276.00
2023-05-04T06:16:41.374Z,2296.00
2023-05-04T06:17:41.385Z,2312.00
2023-05-04T06:18:41.358Z,2360.00
2023-05-04T06:19:41.380Z,2384.00
2023-05-04T06:20:41.413Z,2408.00
2023-05-04T06:21:41.684Z,2452.00
2023-05-04T06:22:41.470Z,2468.00
2023-05-04T06:23:41.492Z,2476.00
2023-05-04T06:24:41.527Z,2476.00
2023-05-04T06:25:41.727Z,2496.00
2023-05-04T06:26:41.579Z,2536.00
2023-05-04T06:27:41.910Z,2524.00
2023-05-04T06:28:41.633Z,2524.00
2023-05-04T06:29:41.725Z,2512.00
2023-05-04T06:30:41.697Z,2492.00
2023-05-04T06:31:41.771Z,2460.00
2023-05-04T06:32:41.767Z,2412.00
2023-05-04T06:33:42.213Z,2420.00
2023-05-04T06:34:41.795Z,2428.00
2023-05-04T06:35:41.827Z,2424.00
2023-05-04T06:36:41.857Z,2388.00
2023-05-04T06:37:41.880Z,2400.00
2023-05-04T06:38:41.911Z,2392.00
2023-05-04T06:39:41.935Z,2408.00
2023-05-04T06:40:42.016Z,2432.00
2023-05-04T06:41:42.002Z,2436.00
2023-05-04T06:42:42.022Z,2436.00
2023-05-04T06:43:42.068Z,2444.00
2023-05-04T06:44:42.076Z,2484.00
2023-05-04T06:45:42.154Z,2528.00
2023-05-04T06:46:42.436Z,2556.00
2023-05-04T06:47:42.191Z,2592.00
2023-05-04T06:48:42.210Z,2616.00
2023-05-04T06:49:42.231Z,2636.00
2023-05-04T06:50:42.248Z,2660.00
2023-05-04T06:51:42.272Z,2672.00
2023-05-04T06:52:42.305Z,2708.00
2023-05-04T06:53:42.626Z,2736.00
2023-05-04T06:54:42.356Z,2760.00
2023-05-04T06:55:42.384Z,2788.00
2023-05-04T06:56:42.413Z,2800.00
2023-05-04T06:57:42.451Z,2812.00
2023-05-04T06:58:42.476Z,2852.00
2023-05-04T06:59:42.499Z,2856.00
2023-05-04T07:00:42.825Z,2876.00
2023-05-04T07:01:42.570Z,2896.00
2023-05-04T07:02:42.610Z,2920.00
2023-05-04T07:03:42.681Z,2932.00
2023-05-04T07:04:42.644Z,2928.00
2023-05-04T07:05:42.697Z,2932.00
2023-05-04T07:06:42.694Z,2936.00
2023-05-04T07:07:42.973Z,2932.00
2023-05-04T07:08:42.750Z,2932.00
2023-05-04T07:09:42.781Z,2932.00
2023-05-04T07:10:42.807Z,2940.00
2023-05-04T07:11:42.835Z,2952.00
2023-05-04T07:12:42.914Z,2956.00
2023-05-04T07:13:42.891Z,2960.00
2023-05-04T07:14:43.216Z,2952.00
2023-05-04T07:15:42.953Z,2948.00
2023-05-04T07:16:43.376Z,2952.00
2023-05-04T07:17:43.012Z,2952.00
2023-05-04T07:18:43.020Z,2960.00
2023-05-04T07:19:43.073Z,2968.00
2023-05-04T07:20:43.087Z,2976.00
2023-05-04T07:21:43.450Z,2988.00
2023-05-04T07:22:43.144Z,2988.00
2023-05-04T07:23:43.162Z,2960.00
2023-05-04T07:24:43.197Z,2936.00
2023-05-04T07:25:43.232Z,2936.00
2023-05-04T07:26:43.260Z,2928.00
2023-05-04T07:27:43.286Z,2948.00
2023-05-04T07:29:43.651Z,2992.00
2023-05-04T07:30:43.362Z,3020.00
2023-05-04T07:31:43.425Z,3052.00
2023-05-04T07:32:43.489Z,3072.00
2023-05-04T07:33:43.557Z,3108.00
2023-05-04T07:34:46.237Z,3132.00
2023-05-04T07:36:43.693Z,3164.00
2023-05-04T07:37:44.037Z,3184.00
2023-05-04T07:38:43.597Z,3164.00
2023-05-04T07:39:43.636Z,3156.00
2023-05-04T07:41:43.673Z,3180.00
2023-05-04T07:42:43.725Z,3176.00
2023-05-04T07:43:43.728Z,3196.00
2023-05-04T07:44:44.086Z,3220.00
2023-05-04T07:46:43.816Z,3276.00
2023-05-04T07:47:43.874Z,3320.00
2023-05-04T07:48:43.909Z,3344.00
2023-05-04T07:49:43.902Z,3336.00
2023-05-04T07:50:43.932Z,3320.00
2023-05-04T07:51:44.211Z,3340.00
2023-05-04T07:52:44.002Z,3356.00
2023-05-04T07:53:44.145Z,3368.00
2023-05-04T07:54:44.049Z,3364.00
2023-05-04T07:55:44.074Z,3336.00
2023-05-04T07:56:44.103Z,3316.00
2023-05-04T07:57:44.136Z,3292.00
2023-05-04T07:58:44.459Z,3288.00
2023-05-04T07:59:44.186Z,3276.00
2023-05-04T08:00:44.219Z,3264.00
2023-05-04T08:01:44.344Z,3264.00
2023-05-04T08:02:44.356Z,3252.00
2023-05-04T08:03:44.298Z,3224.00
2023-05-04T08:04:44.329Z,3212.00
2023-05-04T08:05:44.693Z,3200.00
2023-05-04T08:06:44.391Z,3192.00
2023-05-04T08:07:44.416Z,3196.00
2023-05-04T08:08:44.448Z,3184.00
2023-05-04T08:09:44.813Z,3184.00
2023-05-04T08:10:44.497Z,3176.00
2023-05-04T08:11:44.539Z,3188.00
2023-05-04T08:12:44.897Z,3176.00
2023-05-04T08:13:44.590Z,3152.00
2023-05-04T08:14:44.618Z,3148.00
2023-05-04T08:15:44.647Z,3124.00
2023-05-04T08:16:44.673Z,3124.00
2023-05-04T08:17:44.724Z,3140.00
2023-05-04T08:18:44.734Z,3160.00
2023-05-04T08:19:44.760Z,3172.00
2023-05-04T08:20:44.790Z,3168.00
2023-05-04T08:21:44.825Z,3184.00
2023-05-04T08:22:44.851Z,3192.00
2023-05-04T08:23:44.873Z,3204.00
2023-05-04T08:24:44.916Z,3212.00
2023-05-04T08:25:45.286Z,3212.00
2023-05-04T08:26:49.553Z,3156.00
2023-05-04T08:27:44.992Z,3124.00
2023-05-04T08:28:45.027Z,3128.00
2023-05-04T08:29:45.060Z,3116.00
2023-05-04T08:30:45.084Z,3100.00
2023-05-04T08:31:45.146Z,3120.00
2023-05-04T08:32:45.196Z,3156.00
2023-05-04T08:33:45.165Z,3156.00
2023-05-04T08:34:45.210Z,3172.00
2023-05-04T08:35:45.226Z,3156.00
2023-05-04T08:36:45.254Z,3104.00
2023-05-04T08:37:45.582Z,3108.00
2023-05-04T08:38:45.312Z,3112.00
2023-05-04T08:39:45.353Z,3196.00
2023-05-04T08:40:45.377Z,3064.00
2023-05-04T08:41:45.420Z,3064.00
2023-05-04T08:42:45.534Z,3044.00
2023-05-04T08:43:45.468Z,3024.00
2023-05-04T08:44:45.496Z,3012.00
2023-05-04T08:45:45.550Z,3012.00
2023-05-04T08:46:45.546Z,2988.00
2023-05-04T08:47:45.607Z,2968.00
2023-05-04T08:49:45.930Z,2912.00
2023-05-04T08:50:45.665Z,2872.00
2023-05-04T08:51:45.701Z,2856.00
2023-05-04T08:52:45.722Z,2832.00
2023-05-04T08:53:45.780Z,2820.00
2023-05-04T08:54:45.779Z,2832.00
2023-05-04T08:55:45.804Z,2844.00
2023-05-04T08:56:46.135Z,2872.00
2023-05-04T08:57:45.948Z,2896.00
2023-05-04T08:58:45.889Z,2928.00
2023-05-04T09:00:45.963Z,2980.00
2023-05-04T09:01:46.023Z,2964.00
2023-05-04T09:03:46.649Z,2996.00
2023-05-04T09:04:46.064Z,3028.00
2023-05-04T09:05:46.097Z,3032.00
2023-05-04T09:06:46.123Z,3048.00
2023-05-04T09:07:46.159Z,3060.00
2023-05-04T09:08:46.195Z,3048.00
2023-05-04T09:09:46.212Z,3036.00
2023-05-04T09:10:46.244Z,3032.00
2023-05-04T09:11:46.296Z,2988.00
2023-05-04T09:12:46.351Z,2932.00
2023-05-04T09:13:46.372Z,2888.00
2023-05-04T09:14:46.393Z,2840.00
2023-05-04T09:15:46.384Z,2820.00
2023-05-04T09:16:46.740Z,2788.00
2023-05-04T09:17:57.038Z,2768.00
2023-05-04T09:18:46.495Z,2684.00
2023-05-04T09:19:46.543Z,2672.00
2023-05-04T09:20:46.530Z,2648.00
2023-05-04T09:21:46.562Z,2616.00
2023-05-04T09:22:46.848Z,2584.00
2023-05-04T09:23:46.680Z,2572.00
2023-05-04T09:24:46.649Z,2572.00
2023-05-04T09:25:46.676Z,2564.00
2023-05-04T09:26:46.708Z,2564.00
2023-05-04T09:27:46.736Z,2560.00
2023-05-04T09:28:46.780Z,2536.00
2023-05-04T09:29:46.827Z,2504.00
2023-05-04T09:30:46.876Z,2524.00
2023-05-04T09:31:46.852Z,2500.00
2023-05-04T09:32:46.971Z,2448.00
2023-05-04T09:33:47.012Z,2388.00
2023-05-04T09:34:47.250Z,2384.00
2023-05-04T09:35:46.977Z,2404.00
2023-05-04T09:36:47.001Z,2372.00
2023-05-04T09:37:47.030Z,2376.00
2023-05-04T09:38:47.065Z,2428.00
2023-05-04T09:39:47.089Z,2476.00
2023-05-04T09:40:47.126Z,2500.00
2023-05-04T09:41:47.441Z,2520.00
2023-05-04T09:43:47.201Z,2552.00
2023-05-04T09:44:47.226Z,2596.00
2023-05-04T09:45:47.277Z,2608.00
2023-05-04T09:46:47.356Z,2632.00
2023-05-04T09:47:47.366Z,2620.00
2023-05-04T09:48:47.651Z,2644.00
2023-05-04T09:49:47.385Z,2644.00
2023-05-04T09:50:47.420Z,2724.00
2023-05-04T09:51:47.437Z,2704.00
2023-05-04T09:52:47.476Z,2676.00
2023-05-04T09:53:47.498Z,2688.00
2023-05-04T09:56:47.618Z,2576.00
2023-05-04T09:57:47.611Z,2508.00
2023-05-04T09:58:47.636Z,2496.00
2023-05-04T09:59:47.665Z,2520.00
2023-05-04T10:00:47.699Z,2528.00
2023-05-04T10:01:47.814Z,2624.00
2023-05-04T10:02:48.441Z,2680.00
2023-05-04T10:03:47.787Z,2736.00
2023-05-04T10:04:47.819Z,2784.00
2023-05-04T10:05:47.878Z,2856.00
2023-05-04T10:06:47.871Z,2896.00
2023-05-04T10:07:47.908Z,2944.00
2023-05-04T10:08:47.933Z,3004.00
2023-05-04T10:09:48.265Z,3032.00
2023-05-04T10:11:48.027Z,3020.00
2023-05-04T10:12:48.125Z,3004.00
2023-05-04T10:13:48.087Z,2968.00
2023-05-04T10:14:48.112Z,2916.00
2023-05-04T10:15:48.156Z,2888.00
2023-05-04T10:16:48.464Z,2840.00
2023-05-04T10:17:48.328Z,2792.00
2023-05-04T10:18:48.220Z,2740.00
2023-05-04T10:19:48.255Z,2700.00
2023-05-04T10:20:48.288Z,2660.00
2023-05-04T10:21:48.311Z,2668.00
2023-05-04T10:22:48.346Z,2660.00
2023-05-04T10:23:48.672Z,2628.00
2023-05-04T10:24:48.400Z,2624.00
2023-05-04T10:25:48.432Z,2632.00
2023-05-04T10:26:48.460Z,2608.00
2023-05-04T10:27:48.496Z,2568.00
2023-05-04T10:28:48.521Z,2560.00
2023-05-04T10:29:48.547Z,2592.00
2023-05-04T10:30:48.576Z,2596.00
2023-05-04T10:31:48.661Z,2580.00
2023-05-04T10:32:48.685Z,2540.00
2023-05-04T10:33:48.745Z,2496.00
2023-05-04T10:34:48.704Z,2452.00
2023-05-04T10:35:48.723Z,2420.00
2023-05-04T10:36:48.753Z,2388.00
2023-05-04T10:37:48.799Z,2388.00
2023-05-04T10:38:48.825Z,2352.00
2023-05-04T10:39:48.839Z,2364.00
2023-05-04T10:40:48.873Z,2388.00
2023-05-04T10:41:48.906Z,2408.00
2023-05-04T10:42:49.302Z,2428.00
2023-05-04T10:43:49.143Z,2456.00
2023-05-04T10:44:49.086Z,2472.00
2023-05-04T10:45:49.096Z,2508.00
2023-05-04T10:46:49.051Z,2460.00
2023-05-04T10:47:49.121Z,2516.00
2023-05-04T10:48:49.408Z,2564.00
2023-05-04T10:49:49.297Z,2584.00
2023-05-04T10:50:49.171Z,2620.00
2023-05-04T10:51:49.761Z,2648.00
2023-05-04T10:52:49.295Z,2656.00
2023-05-04T10:53:49.256Z,2668.00
2023-05-04T10:54:49.585Z,2680.00
2023-05-04T10:55:49.371Z,2676.00
2023-05-04T10:56:49.356Z,2684.00
2023-05-04T10:57:49.450Z,2700.00
2023-05-04T10:58:49.410Z,2712.00
2023-05-04T10:59:49.437Z,2716.00
2023-05-04T11:00:49.555Z,2716.00
2023-05-04T11:01:49.795Z,2724.00
2023-05-04T11:02:49.780Z,2728.00
2023-05-04T11:03:49.618Z,2680.00
2023-05-04T11:04:49.603Z,2644.00
2023-05-04T11:05:49.652Z,2600.00
2023-05-04T11:06:49.640Z,2592.00
2023-05-04T11:07:49.667Z,2576.00
2023-05-04T11:08:49.999Z,2564.00
2023-05-04T11:09:49.729Z,2536.00
2023-05-04T11:10:49.783Z,2536.00
2023-05-04T11:11:49.787Z,2544.00
2023-05-04T11:12:49.850Z,2556.00
2023-05-04T11:13:49.844Z,2536.00
2023-05-04T11:14:49.884Z,2556.00
2023-05-04T11:15:50.216Z,2588.00
2023-05-04T11:16:49.979Z,2620.00
2023-05-04T11:17:50.157Z,2644.00
2023-05-04T11:18:49.996Z,2676.00
2023-05-04T11:19:50.026Z,2708.00
2023-05-04T11:20:50.053Z,2736.00
2023-05-04T11:21:50.105Z,2772.00
2023-05-04T11:22:50.433Z,2792.00
2023-05-04T11:23:50.151Z,2816.00
2023-05-04T11:24:50.173Z,2832.00
2023-05-04T11:25:50.215Z,2828.00
2023-05-04T11:26:50.228Z,2848.00
2023-05-04T11:27:50.436Z,2864.00
2023-05-04T11:28:50.412Z,2872.00
2023-05-04T11:29:50.322Z,2872.00
2023-05-04T11:30:50.361Z,2888.00
2023-05-04T11:31:50.427Z,2908.00
2023-05-04T11:32:50.431Z,2944.00
2023-05-04T11:34:50.463Z,3008.00
2023-05-04T11:35:50.510Z,3012.00
2023-05-04T11:36:50.521Z,3008.00
2023-05-04T11:37:50.737Z,3056.00
2023-05-04T11:38:50.585Z,3080.00
2023-05-04T11:39:50.618Z,3104.00
2023-05-04T11:40:50.651Z,3136.00
2023-05-04T11:41:50.675Z,3108.00
2023-05-04T11:42:50.730Z,3092.00
2023-05-04T11:43:50.733Z,3124.00
2023-05-04T11:44:50.762Z,3156.00
2023-05-04T11:46:50.837Z,3144.00
2023-05-04T11:47:51.197Z,3144.00
2023-05-04T11:48:50.885Z,3156.00
2023-05-04T11:49:50.918Z,3148.00
2023-05-04T11:50:50.945Z,3140.00
2023-05-04T11:51:50.982Z,3136.00
2023-05-04T11:52:51.005Z,3120.00
2023-05-04T11:53:51.069Z,3136.00
2023-05-04T11:54:51.060Z,3100.00
2023-05-04T11:55:51.089Z,3052.00
2023-05-04T11:56:51.126Z,3032.00
2023-05-04T11:57:51.156Z,2988.00
2023-05-04T11:58:51.181Z,2952.00
2023-05-04T11:59:51.208Z,2968.00
2023-05-04T12:00:51.239Z,2980.00
2023-05-04T12:01:51.268Z,2984.00
2023-05-04T12:02:51.349Z,2992.00
2023-05-04T12:03:54.235Z,3008.00
2023-05-04T12:05:51.734Z,3056.00
2023-05-04T12:06:51.432Z,3056.00
2023-05-04T12:07:51.454Z,3064.00
2023-05-04T12:08:51.496Z,3056.00
2023-05-04T12:09:51.550Z,3040.00
2023-05-04T12:10:51.548Z,3032.00
2023-05-04T12:11:51.575Z,3008.00
2023-05-04T12:12:51.914Z,2964.00
2023-05-04T12:14:51.679Z,2936.00
2023-05-04T12:15:51.689Z,2912.00
2023-05-04T12:16:51.726Z,2896.00
2023-05-04T12:17:51.859Z,2900.00
2023-05-04T12:18:51.805Z,2872.00
2023-05-04T12:19:52.110Z,2856.00
2023-05-04T12:20:51.845Z,2832.00
2023-05-04T12:21:52.011Z,2820.00
2023-05-04T12:22:51.895Z,2784.00
2023-05-04T12:23:51.937Z,2752.00
2023-05-04T12:24:51.968Z,2736.00
2023-05-04T12:25:58.247Z,2716.00
2023-05-04T12:26:52.267Z,2692.00
2023-05-04T12:27:52.051Z,2664.00
2023-05-04T12:28:52.074Z,2648.00
2023-05-04T12:29:52.163Z,2620.00
2023-05-04T12:30:52.239Z,2600.00
2023-05-04T12:31:52.204Z,2596.00
2023-05-04T12:32:52.217Z,2572.00
2023-05-04T12:33:52.238Z,2556.00
2023-05-04T12:34:52.259Z,2544.00
2023-05-04T12:35:52.286Z,2532.00
2023-05-04T12:36:52.323Z,2532.00
2023-05-04T12:37:52.345Z,2532.00
2023-05-04T12:38:52.369Z,2528.00
2023-05-04T12:39:52.399Z,2532.00
2023-05-04T12:40:52.451Z,2536.00
2023-05-04T12:41:52.499Z,2532.00
2023-05-04T12:42:52.493Z,2544.00
2023-05-04T12:43:52.527Z,2552.00
2023-05-04T12:44:52.554Z,2568.00
2023-05-04T12:45:52.661Z,2568.00
2023-05-04T12:46:52.618Z,2572.00
2023-05-04T12:47:52.745Z,2576.00
2023-05-04T12:48:52.678Z,2572.00
2023-05-04T12:49:52.701Z,2568.00
2023-05-04T12:50:52.732Z,2564.00
2023-05-04T12:51:53.007Z,2548.00
2023-05-04T12:52:52.792Z,2568.00
2023-05-04T12:53:52.829Z,2592.00
2023-05-04T12:54:52.871Z,2620.00
2023-05-04T12:55:52.900Z,2628.00
2023-05-04T12:56:52.918Z,2620.00
2023-05-04T12:57:53.266Z,2628.00
2023-05-04T12:58:52.981Z,2664.00
2023-05-04T12:59:53.005Z,2680.00
2023-05-04T13:01:53.086Z,2700.00
2023-05-04T13:02:53.291Z,2624.00
2023-05-04T13:03:53.495Z,2716.00
2023-05-04T13:04:53.559Z,2728.00
2023-05-04T13:05:53.348Z,2756.00
2023-05-04T13:06:53.227Z,2736.00
2023-05-04T13:07:53.253Z,2800.00
2023-05-04T13:08:53.286Z,2820.00
2023-05-04T13:09:53.310Z,2860.00